createdAt,value
2018-03-24T00:00:31.532Z,3.70
2018-03-24T00:03:00.561Z,3.70
2018-03-24T00:05:28.796Z,3.70
2018-03-24T00:07:57.812Z,3.70
2018-03-24T00:10:26.104Z,3.70
2018-03-24T00:12:54.351Z,3.70
2018-03-24T00:15:23.437Z,3.90
2018-03-24T00:17:52.464Z,4.00
2018-03-24T00:20:20.740Z,4.00
2018-03-24T00:22:49.016Z,4.00
2018-03-24T00:25:17.253Z,4.10
2018-03-24T00:27:46.284Z,4.20
2018-03-24T00:30:14.560Z,4.20
2018-03-24T00:32:42.797Z,4.20
2018-03-24T00:35:11.837Z,4.20
2018-03-24T00:37:40.102Z,4.20
2018-03-24T00:40:08.344Z,4.30
2018-03-24T00:42:37.473Z,4.30
2018-03-24T00:45:05.720Z,4.30
2018-03-24T00:47:33.961Z,4.30
2018-03-24T00:50:02.200Z,4.30
2018-03-24T00:52:30.480Z,4.30
2018-03-24T00:54:58.740Z,4.30
2018-03-24T00:57:26.979Z,4.30
2018-03-24T00:59:56.020Z,4.30
2018-03-24T01:02:24.256Z,4.30
2018-03-24T01:04:53.283Z,4.30
2018-03-24T01:07:21.523Z,4.30
2018-03-24T01:09:50.551Z,4.30
2018-03-24T01:12:18.788Z,4.30
2018-03-24T01:14:47.790Z,4.30
2018-03-24T01:17:16.796Z,4.20
2018-03-24T01:19:45.081Z,4.20
2018-03-24T01:22:13.323Z,4.20
2018-03-24T01:24:42.330Z,4.00
2018-03-24T01:27:10.577Z,4.00
2018-03-24T01:29:38.899Z,4.00
2018-03-24T01:32:07.144Z,4.00
2018-03-24T01:34:36.175Z,3.80
2018-03-24T01:37:04.448Z,3.80
2018-03-24T01:39:32.692Z,3.70
2018-03-24T01:42:00.933Z,3.70
2018-03-24T01:44:29.181Z,3.60
2018-03-24T01:46:57.417Z,3.60
2018-03-24T01:49:25.662Z,3.60
2018-03-24T01:51:54.020Z,3.70
2018-03-24T01:54:22.272Z,3.70
2018-03-24T01:56:50.548Z,3.60
2018-03-24T01:59:18.789Z,3.60
2018-03-24T02:01:47.789Z,3.60
2018-03-24T02:04:16.052Z,3.60
2018-03-24T02:06:45.081Z,3.60
2018-03-24T02:09:13.320Z,3.50
2018-03-24T02:11:42.328Z,3.40
2018-03-24T02:14:10.621Z,3.40
2018-03-24T02:16:38.896Z,3.40
2018-03-24T02:19:07.132Z,3.40
2018-03-24T02:21:36.157Z,3.20
2018-03-24T02:24:04.392Z,3.20
2018-03-24T02:26:32.637Z,3.10
2018-03-24T02:29:00.885Z,3.00
2018-03-24T02:31:29.161Z,2.90
2018-03-24T02:33:57.406Z,2.90
2018-03-24T02:36:26.409Z,2.90
2018-03-24T02:38:54.705Z,2.90
2018-03-24T02:41:22.952Z,2.90
2018-03-24T02:43:51.987Z,3.00
2018-03-24T02:46:20.240Z,2.90
2018-03-24T02:48:48.529Z,3.00
2018-03-24T02:51:16.762Z,3.00
2018-03-24T02:53:45.777Z,3.10
2018-03-24T02:56:14.013Z,3.10
2018-03-24T02:58:42.355Z,3.20
2018-03-24T03:01:10.585Z,3.20
2018-03-24T03:03:39.593Z,3.30
2018-03-24T03:06:07.830Z,3.30
2018-03-24T03:08:36.069Z,3.30
2018-03-24T03:11:04.308Z,3.40
2018-03-24T03:13:33.425Z,3.40
2018-03-24T03:16:01.709Z,3.40
2018-03-24T03:18:29.944Z,3.40
2018-03-24T03:20:58.952Z,3.50
2018-03-24T03:23:27.192Z,3.40
2018-03-24T03:25:55.521Z,3.50
2018-03-24T03:28:23.756Z,3.50
2018-03-24T03:31:10.589Z,3.40
2018-03-24T03:33:38.827Z,3.40
2018-03-24T03:36:07.157Z,3.40
2018-03-24T03:38:35.404Z,3.40
2018-03-24T03:41:04.443Z,3.50
2018-03-24T03:43:32.709Z,3.40
2018-03-24T03:46:00.980Z,3.50
2018-03-24T03:48:29.257Z,3.50
2018-03-24T03:50:57.528Z,3.50
2018-03-24T03:53:25.769Z,3.50
2018-03-24T03:55:54.776Z,3.50
2018-03-24T03:58:23.017Z,3.50
2018-03-24T04:00:51.352Z,3.50
2018-03-24T04:03:19.620Z,3.50
2018-03-24T04:05:47.896Z,3.50
2018-03-24T04:08:16.174Z,3.40
2018-03-24T04:10:44.452Z,3.40
2018-03-24T04:13:12.726Z,3.40
2018-03-24T04:15:40.964Z,3.40
2018-03-24T04:18:09.976Z,3.30
2018-03-24T04:20:38.265Z,3.30
2018-03-24T04:23:06.508Z,3.30
2018-03-24T04:25:35.541Z,3.20
2018-03-24T04:28:03.791Z,3.20
2018-03-24T04:30:32.028Z,3.20
2018-03-24T04:33:00.279Z,3.20
2018-03-24T04:35:28.537Z,3.20
2018-03-24T04:37:56.808Z,3.20
2018-03-24T04:40:25.051Z,3.10
2018-03-24T04:42:54.072Z,3.20
2018-03-24T04:45:22.308Z,3.20
2018-03-24T04:47:51.348Z,3.10
2018-03-24T04:50:19.588Z,3.10
2018-03-24T04:52:48.592Z,3.10
2018-03-24T04:55:16.907Z,3.00
2018-03-24T04:57:45.175Z,3.00
2018-03-24T05:00:13.412Z,3.00
2018-03-24T05:02:42.416Z,3.00
2018-03-24T05:05:10.715Z,3.00
2018-03-24T05:07:38.956Z,3.00
2018-03-24T05:10:07.964Z,3.00
2018-03-24T05:12:36.248Z,2.90
2018-03-24T05:15:04.525Z,2.90
2018-03-24T05:17:32.805Z,2.90
2018-03-24T05:20:01.080Z,2.90
2018-03-24T05:22:29.348Z,2.90
2018-03-24T05:24:57.632Z,3.00
2018-03-24T05:27:25.900Z,2.90
2018-03-24T05:29:54.149Z,2.90
2018-03-24T05:32:23.176Z,3.00
2018-03-24T05:34:51.424Z,3.00
2018-03-24T05:37:19.665Z,3.00
2018-03-24T05:39:47.908Z,3.10
2018-03-24T05:42:16.168Z,3.10
2018-03-24T05:44:44.420Z,3.20
2018-03-24T05:47:12.657Z,3.20
2018-03-24T05:49:41.004Z,3.20
2018-03-24T05:52:10.100Z,3.30
2018-03-24T05:54:38.365Z,3.30
2018-03-24T05:57:06.639Z,3.40
2018-03-24T05:59:34.916Z,3.60
2018-03-24T06:02:03.153Z,3.70
2018-03-24T06:04:32.185Z,4.00
2018-03-24T06:07:00.434Z,3.90
2018-03-24T06:09:28.669Z,4.10
2018-03-24T06:11:57.008Z,4.20
2018-03-24T06:14:25.289Z,4.40
2018-03-24T06:16:53.560Z,4.50
2018-03-24T06:19:21.796Z,4.70
2018-03-24T06:21:50.824Z,5.10
2018-03-24T06:24:19.104Z,5.00
2018-03-24T06:26:47.357Z,5.30
2018-03-24T06:29:16.353Z,5.80
2018-03-24T06:31:59.477Z,5.80
2018-03-24T06:34:28.126Z,6.10
2018-03-24T06:37:00.297Z,6.60
2018-03-24T06:39:28.532Z,6.90
2018-03-24T06:41:56.892Z,7.10
2018-03-24T06:44:25.128Z,7.30
2018-03-24T06:46:54.141Z,7.90
2018-03-24T06:49:22.380Z,7.80
2018-03-24T06:51:50.620Z,8.20
2018-03-24T06:54:18.888Z,8.40
2018-03-24T06:56:47.122Z,8.50
2018-03-24T06:59:16.133Z,8.50
2018-03-24T07:01:44.383Z,8.50
2018-03-24T07:04:12.633Z,8.50
2018-03-24T07:06:40.876Z,8.40
2018-03-24T07:09:09.128Z,8.50
2018-03-24T07:11:38.152Z,8.60
2018-03-24T07:14:06.733Z,8.60
2018-03-24T07:16:35.010Z,8.70
2018-03-24T07:19:03.269Z,8.80
2018-03-24T07:21:31.563Z,8.80
2018-03-24T07:23:59.800Z,8.70
2018-03-24T07:26:28.821Z,8.40
2018-03-24T07:28:57.101Z,8.40
2018-03-24T07:31:25.375Z,8.10
2018-03-24T07:33:53.584Z,7.90
2018-03-24T07:36:21.829Z,7.70
2018-03-24T07:38:50.133Z,7.70
2018-03-24T07:41:18.356Z,7.90
2018-03-24T07:43:47.520Z,8.20
2018-03-24T07:46:16.532Z,8.90
2018-03-24T07:48:44.836Z,8.90
2018-03-24T07:51:11.588Z,9.40
2018-03-24T07:53:37.596Z,9.80
2018-03-24T07:56:03.661Z,10.10
2018-03-24T07:58:29.685Z,10.00
2018-03-24T08:00:55.936Z,9.70
2018-03-24T08:03:22.792Z,9.20
2018-03-24T08:05:48.872Z,9.20
2018-03-24T08:08:14.888Z,9.10
2018-03-24T08:10:40.892Z,9.40
2018-03-24T08:13:06.900Z,9.20
2018-03-24T08:15:32.925Z,9.20
2018-03-24T08:17:58.970Z,9.70
2018-03-24T08:20:25.008Z,10.40
2018-03-24T08:22:51.074Z,10.80
2018-03-24T08:25:17.105Z,10.50
2018-03-24T08:27:43.101Z,10.40
2018-03-24T08:30:09.860Z,10.70
2018-03-24T08:32:35.868Z,10.70
2018-03-24T08:35:02.631Z,12.50
2018-03-24T08:37:28.683Z,12.50
2018-03-24T08:39:54.694Z,13.20
2018-03-24T08:42:20.692Z,13.50
2018-03-24T08:44:46.720Z,13.30
2018-03-24T08:47:12.720Z,12.90
2018-03-24T08:49:39.528Z,12.50
2018-03-24T08:52:05.589Z,12.40
2018-03-24T08:54:32.335Z,12.40
2018-03-24T08:56:59.077Z,12.50
2018-03-24T08:59:25.113Z,12.40
2018-03-24T09:01:51.135Z,12.10
2018-03-24T09:04:17.137Z,11.70
2018-03-24T09:06:43.892Z,11.50
2018-03-24T09:09:09.957Z,11.50
2018-03-24T09:11:35.968Z,11.80
2018-03-24T09:14:01.972Z,11.70
2018-03-24T09:16:27.990Z,11.40
2018-03-24T09:18:54.005Z,11.30
2018-03-24T09:21:20.017Z,11.20
2018-03-24T09:23:46.782Z,11.00
2018-03-24T09:26:12.844Z,10.90
2018-03-24T09:28:38.856Z,10.90
2018-03-24T09:31:04.956Z,11.20
2018-03-24T09:33:30.960Z,11.40
2018-03-24T09:35:56.968Z,11.90
2018-03-24T09:38:23.725Z,12.30
2018-03-24T09:40:49.813Z,12.30
2018-03-24T09:43:15.833Z,12.60
2018-03-24T09:45:41.945Z,12.80
2018-03-24T09:48:07.968Z,12.80
2018-03-24T09:50:33.976Z,12.30
2018-03-24T09:53:00.120Z,12.00
2018-03-24T09:55:26.924Z,12.00
2018-03-24T09:57:53.004Z,12.00
2018-03-24T10:00:19.816Z,11.40
2018-03-24T10:02:45.881Z,11.40
2018-03-24T10:05:12.647Z,10.60
2018-03-24T10:07:38.632Z,10.60
2018-03-24T10:10:04.632Z,10.30
2018-03-24T10:12:30.640Z,10.50
2018-03-24T10:14:56.940Z,10.60
2018-03-24T10:17:23.004Z,10.80
2018-03-24T10:19:49.012Z,11.00
2018-03-24T10:25:17.216Z,10.40
2018-03-24T10:27:45.521Z,10.40
2018-03-24T10:30:14.567Z,10.80
2018-03-24T10:32:42.808Z,10.80
2018-03-24T10:35:11.163Z,11.00
2018-03-24T10:37:45.927Z,12.00
2018-03-24T10:40:14.216Z,11.90
2018-03-24T10:42:42.464Z,11.70
2018-03-24T10:45:10.779Z,11.30
2018-03-24T10:47:39.086Z,11.00
2018-03-24T10:50:07.295Z,11.20
2018-03-24T10:52:35.549Z,11.00
2018-03-24T10:55:04.569Z,10.80
2018-03-24T10:57:32.860Z,10.70
2018-03-24T11:00:01.101Z,10.70
2018-03-24T11:02:30.232Z,10.80
2018-03-24T11:04:58.484Z,10.80
2018-03-24T11:07:26.752Z,10.90
2018-03-24T11:09:55.068Z,10.90
2018-03-24T11:12:23.352Z,10.70
2018-03-24T11:14:51.606Z,10.80
2018-03-24T11:17:20.098Z,10.90
2018-03-24T11:19:48.367Z,11.00
2018-03-24T11:22:16.641Z,11.20
2018-03-24T11:24:44.921Z,11.30
2018-03-24T11:27:13.165Z,11.30
2018-03-24T11:29:41.465Z,11.10
2018-03-24T11:32:09.705Z,10.80
2018-03-24T11:34:38.725Z,10.50
2018-03-24T11:37:06.972Z,10.50
2018-03-24T11:39:35.988Z,10.60
2018-03-24T11:42:04.237Z,10.60
2018-03-24T11:44:33.254Z,10.10
2018-03-24T11:47:01.500Z,10.10
2018-03-24T11:49:30.543Z,10.20
2018-03-24T11:51:58.793Z,10.20
2018-03-24T11:54:38.817Z,10.40
2018-03-24T11:57:07.832Z,10.50
2018-03-24T11:59:36.136Z,10.40
2018-03-24T12:02:04.417Z,10.60
2018-03-24T12:04:32.660Z,10.70
2018-03-24T12:07:00.958Z,10.80
2018-03-24T12:09:29.213Z,10.80
2018-03-24T12:11:57.508Z,10.80
2018-03-24T12:14:25.753Z,10.50
2018-03-24T12:16:54.677Z,10.50
2018-03-24T12:19:22.896Z,10.40
2018-03-24T12:21:51.941Z,10.50
2018-03-24T12:24:20.189Z,10.50
2018-03-24T12:26:48.437Z,10.60
2018-03-24T12:29:16.707Z,10.50
2018-03-24T12:31:45.081Z,10.30
2018-03-24T12:34:14.444Z,10.10
2018-03-24T12:36:42.637Z,10.00
2018-03-24T12:39:10.892Z,10.10
2018-03-24T12:41:39.148Z,10.20
2018-03-24T12:44:07.396Z,10.20
2018-03-24T12:46:35.648Z,10.10
2018-03-24T12:49:03.904Z,10.00
2018-03-24T12:51:32.164Z,9.90
2018-03-24T12:54:00.420Z,10.10
2018-03-24T12:56:28.666Z,10.10
2018-03-24T12:58:56.914Z,9.90
2018-03-24T13:01:25.260Z,9.80
2018-03-24T13:03:53.580Z,9.70
2018-03-24T13:06:21.920Z,9.80
2018-03-24T13:08:50.196Z,9.80
2018-03-24T13:11:18.472Z,9.60
2018-03-24T13:13:46.752Z,9.40
2018-03-24T13:16:15.021Z,9.30
2018-03-24T13:18:43.396Z,9.40
2018-03-24T13:21:11.637Z,9.40
2018-03-24T13:23:40.672Z,9.40
2018-03-24T13:26:08.912Z,9.40
2018-03-24T13:28:37.916Z,9.30
2018-03-24T13:31:06.197Z,9.30
2018-03-24T13:33:35.370Z,9.30
2018-03-24T13:36:04.376Z,9.00
2018-03-24T13:38:32.623Z,9.00
2018-03-24T13:41:00.978Z,9.00
2018-03-24T13:43:29.297Z,9.00
2018-03-24T13:45:59.068Z,9.30
2018-03-24T13:48:28.115Z,9.20
2018-03-24T13:50:56.368Z,9.20
2018-03-24T13:53:25.401Z,9.20
2018-03-24T13:55:53.644Z,9.20
2018-03-24T13:58:22.655Z,9.30
2018-03-24T14:00:50.913Z,9.30
2018-03-24T14:03:19.937Z,9.60
2018-03-24T14:05:48.180Z,9.60
2018-03-24T14:08:17.884Z,9.40
2018-03-24T14:10:46.888Z,9.30
2018-03-24T14:13:15.136Z,9.30
2018-03-24T14:15:43.472Z,9.20
2018-03-24T14:18:11.716Z,9.20
2018-03-24T14:20:40.014Z,9.20
2018-03-24T14:23:08.265Z,9.30
2018-03-24T14:25:36.501Z,9.20
2018-03-24T14:28:04.837Z,9.30
2018-03-24T14:30:33.081Z,9.20
2018-03-24T14:33:02.092Z,8.90
2018-03-24T14:35:30.489Z,8.90
2018-03-24T14:37:58.888Z,8.80
2018-03-24T14:40:27.244Z,8.80
2018-03-24T14:42:55.492Z,8.80
2018-03-24T14:45:23.796Z,8.60
2018-03-24T14:47:52.135Z,8.60
2018-03-24T14:50:21.141Z,8.50
2018-03-24T14:52:49.465Z,8.50
2018-03-24T14:55:17.709Z,8.40
2018-03-24T14:57:45.998Z,8.40
2018-03-24T15:00:14.246Z,8.30
2018-03-24T15:02:42.541Z,8.20
2018-03-24T15:05:10.796Z,8.20
2018-03-24T15:07:39.105Z,8.10
2018-03-24T15:10:07.363Z,8.10
2018-03-24T15:12:35.620Z,8.10
2018-03-24T15:15:04.636Z,8.10
2018-03-24T15:17:32.905Z,8.10
2018-03-24T15:20:01.155Z,8.10
2018-03-24T15:22:29.457Z,8.10
2018-03-24T15:24:57.740Z,8.10
2018-03-24T15:27:25.982Z,8.10
2018-03-24T15:30:07.089Z,8.20
2018-03-24T15:32:57.074Z,8.10
2018-03-24T15:35:31.184Z,8.20
2018-03-24T15:38:00.759Z,8.20
2018-03-24T15:40:29.161Z,8.20
2018-03-24T15:42:57.405Z,8.10
2018-03-24T15:45:26.448Z,8.00
2018-03-24T15:47:54.692Z,8.00
2018-03-24T15:50:22.980Z,8.00
2018-03-24T15:52:51.329Z,7.90
2018-03-24T15:55:20.345Z,7.90
2018-03-24T15:57:48.585Z,7.90
2018-03-24T16:00:16.907Z,7.90
2018-03-24T16:02:45.176Z,7.80
2018-03-24T16:05:13.456Z,7.90
2018-03-24T16:07:41.732Z,7.90
2018-03-24T16:10:10.109Z,7.80
2018-03-24T16:12:38.350Z,7.80
2018-03-24T16:15:07.478Z,7.70
2018-03-24T16:17:35.965Z,7.70
2018-03-24T16:20:04.197Z,7.70
2018-03-24T16:22:33.213Z,7.70
2018-03-24T16:25:01.462Z,7.70
2018-03-24T16:27:30.721Z,7.80
2018-03-24T16:29:58.956Z,7.80
2018-03-24T16:32:27.204Z,7.70
2018-03-24T16:37:42.217Z,7.80
2018-03-24T16:40:10.710Z,7.70
2018-03-24T16:42:39.690Z,7.60
2018-03-24T16:45:07.961Z,7.60
2018-03-24T16:47:36.458Z,7.60
2018-03-24T16:50:04.720Z,7.50
2018-03-24T16:52:33.021Z,7.50
2018-03-24T16:55:01.390Z,7.50
2018-03-24T16:57:29.629Z,7.50
2018-03-24T16:59:57.872Z,7.40
2018-03-24T17:02:26.189Z,7.30
2018-03-24T17:04:55.264Z,7.30
2018-03-24T17:07:24.305Z,7.20
2018-03-24T17:09:52.581Z,7.20
2018-03-24T17:12:20.828Z,7.00
2018-03-24T17:14:50.013Z,6.90
2018-03-24T17:17:19.048Z,6.90
2018-03-24T17:19:47.292Z,6.90
2018-03-24T17:22:15.540Z,6.80
2018-03-24T17:24:43.784Z,6.80
2018-03-24T17:27:12.025Z,6.60
2018-03-24T17:29:40.319Z,6.50
2018-03-24T17:32:08.592Z,6.40
2018-03-24T17:34:36.828Z,6.30
2018-03-24T17:37:05.153Z,6.20
2018-03-24T17:39:33.417Z,6.00
2018-03-24T17:42:01.697Z,6.00
2018-03-24T17:44:29.973Z,5.90
2018-03-24T17:46:58.250Z,5.80
2018-03-24T17:49:26.503Z,5.60
2018-03-24T17:51:54.741Z,5.60
2018-03-24T17:54:22.988Z,5.40
2018-03-24T17:56:51.354Z,5.30
2018-03-24T17:59:19.720Z,5.20
2018-03-24T18:01:47.956Z,5.10
2018-03-24T18:04:17.030Z,5.00
2018-03-24T18:06:45.228Z,4.90
2018-03-24T18:09:14.245Z,4.80
2018-03-24T18:11:42.481Z,4.80
2018-03-24T18:14:10.734Z,4.70
2018-03-24T18:16:38.968Z,4.70
2018-03-24T18:19:07.233Z,4.60
2018-03-24T18:21:35.539Z,4.50
2018-03-24T18:24:03.768Z,4.50
2018-03-24T18:26:32.784Z,4.40
2018-03-24T18:29:01.208Z,4.30
2018-03-24T18:31:29.456Z,4.30
2018-03-24T18:33:57.698Z,4.30
2018-03-24T18:36:26.004Z,4.30
2018-03-24T18:38:54.256Z,4.20
2018-03-24T18:41:22.731Z,4.10
2018-03-24T18:43:50.905Z,4.00
2018-03-24T18:46:19.923Z,3.90
2018-03-24T18:48:48.204Z,3.90
2018-03-24T18:51:16.469Z,3.90
2018-03-24T18:53:44.712Z,3.80
2018-03-24T18:56:13.753Z,3.70
2018-03-24T18:58:42.001Z,3.70
2018-03-24T19:01:10.245Z,3.60
2018-03-24T19:03:38.489Z,3.60
2018-03-24T19:06:06.745Z,3.60
2018-03-24T19:08:35.119Z,3.50
2018-03-24T19:11:03.369Z,3.50
2018-03-24T19:13:32.379Z,3.50
2018-03-24T19:16:00.612Z,3.50
2018-03-24T19:18:29.650Z,3.50
2018-03-24T19:20:57.938Z,3.50
2018-03-24T19:23:26.182Z,3.50
2018-03-24T19:25:55.193Z,3.60
2018-03-24T19:28:23.481Z,3.60
2018-03-24T19:30:51.728Z,3.60
2018-03-24T19:33:19.965Z,3.50
2018-03-24T19:35:48.220Z,3.50
2018-03-24T19:38:16.480Z,3.40
2018-03-24T19:40:44.720Z,3.40
2018-03-24T19:43:13.724Z,3.40
2018-03-24T19:45:42.025Z,3.30
2018-03-24T19:48:10.292Z,3.40
2018-03-24T19:50:38.548Z,3.40
2018-03-24T19:53:06.881Z,3.40
2018-03-24T19:55:35.120Z,3.50
2018-03-24T19:58:03.384Z,3.60
2018-03-24T20:00:31.716Z,3.50
2018-03-24T20:02:59.944Z,3.40
2018-03-24T20:05:28.232Z,3.40
2018-03-24T20:07:56.473Z,3.40
2018-03-24T20:10:24.773Z,3.40
2018-03-24T20:12:53.017Z,3.40
2018-03-24T20:15:22.032Z,3.40
2018-03-24T20:17:50.264Z,3.40
2018-03-24T20:20:18.515Z,3.40
2018-03-24T20:22:47.109Z,3.30
2018-03-24T20:25:15.322Z,3.30
2018-03-24T20:27:44.329Z,3.30
2018-03-24T20:30:12.568Z,3.30
2018-03-24T20:32:40.813Z,3.20
2018-03-24T20:35:09.113Z,3.20
2018-03-24T20:37:37.347Z,3.10
2018-03-24T20:40:05.585Z,3.10
2018-03-24T20:42:34.600Z,3.10
2018-03-24T20:45:02.832Z,3.00
2018-03-24T20:47:31.092Z,3.00
2018-03-24T20:49:59.332Z,3.10
2018-03-24T20:52:27.608Z,3.10
2018-03-24T20:54:55.852Z,3.20
2018-03-24T20:57:24.856Z,3.10
2018-03-24T20:59:53.103Z,3.10
2018-03-24T21:02:21.419Z,3.10
2018-03-24T21:04:49.699Z,3.10
2018-03-24T21:07:17.936Z,3.10
2018-03-24T21:09:46.952Z,3.10
2018-03-24T21:12:15.248Z,3.10
2018-03-24T21:14:43.574Z,3.10
2018-03-24T21:17:11.793Z,3.00
2018-03-24T21:19:40.045Z,2.80
2018-03-24T21:22:08.344Z,2.70
2018-03-24T21:24:36.608Z,2.60
2018-03-24T21:27:04.849Z,2.50
2018-03-24T21:29:33.090Z,2.50
2018-03-24T21:32:01.333Z,2.40
2018-03-24T21:34:29.620Z,2.30
2018-03-24T21:36:57.864Z,2.20
2018-03-24T21:39:26.869Z,2.20
2018-03-24T21:41:55.165Z,2.20
2018-03-24T21:44:23.405Z,2.10
2018-03-24T21:46:52.432Z,2.10
2018-03-24T21:49:20.668Z,2.00
2018-03-24T21:51:49.681Z,2.00
2018-03-24T21:54:17.925Z,2.00
2018-03-24T21:56:46.248Z,1.90
2018-03-24T21:59:14.524Z,1.90
2018-03-24T22:01:42.800Z,1.90
2018-03-24T22:04:11.041Z,1.80
2018-03-24T22:06:40.069Z,1.80
2018-03-24T22:09:08.344Z,1.80
2018-03-24T22:11:36.585Z,1.80
2018-03-24T22:14:05.620Z,1.70
2018-03-24T22:16:33.893Z,1.70
2018-03-24T22:19:02.141Z,1.70
2018-03-24T22:21:30.376Z,1.70
2018-03-24T22:23:58.717Z,1.60
2018-03-24T22:26:26.965Z,1.70
2018-03-24T22:28:55.974Z,1.70
2018-03-24T22:31:24.208Z,1.60
2018-03-24T22:33:52.456Z,1.70
2018-03-24T22:36:20.709Z,1.60
2018-03-24T22:38:48.992Z,1.60
2018-03-24T22:41:17.263Z,1.50
2018-03-24T22:43:45.533Z,1.50
2018-03-24T22:46:13.776Z,1.50
2018-03-24T22:48:42.784Z,1.40
2018-03-24T22:51:11.088Z,1.50
2018-03-24T22:53:39.326Z,1.40
2018-03-24T22:56:07.572Z,1.40
2018-03-24T22:58:35.904Z,1.40
2018-03-24T23:01:04.148Z,1.30
2018-03-24T23:03:32.398Z,1.30
2018-03-24T23:06:00.724Z,1.30
2018-03-24T23:08:28.968Z,1.30
2018-03-24T23:10:58.092Z,1.30
2018-03-24T23:13:26.368Z,1.20
2018-03-24T23:15:54.604Z,1.20
2018-03-24T23:18:23.617Z,1.20
2018-03-24T23:20:51.920Z,1.10
2018-03-24T23:23:20.165Z,1.10
2018-03-24T23:25:49.244Z,1.10
2018-03-24T23:28:18.277Z,1.10
2018-03-24T23:30:46.557Z,1.00
2018-03-24T23:33:14.833Z,1.00
2018-03-24T23:35:43.110Z,1.10
2018-03-24T23:38:11.384Z,1.00
2018-03-24T23:40:39.661Z,1.00
2018-03-24T23:43:07.936Z,1.00
2018-03-24T23:45:36.212Z,1.00
2018-03-24T23:48:04.444Z,1.00
2018-03-24T23:50:33.456Z,1.00
2018-03-24T23:53:01.693Z,1.00
2018-03-24T23:55:30.025Z,0.90
2018-03-24T23:57:58.300Z,0.90
